Latest Weather Observations for Marree Airport

IDS60801

Issued at 2:35 pm CDT Saturday 25 October 2014 (issued every 30 minutes, with the page automatically refreshed every 10 minutes)

About weather observations | Map of weather stations | Latest weather observations for SA | Other Formats
Station Details ID: 017126 Name: MARREE AERO Lat: -29.66 Lon: 138.07 Height: 50.0 m
Data from the previous 72 hours. | See also: Recent months for locations in South Australia
Date/Time
CDT
Temp
°C
App
Temp
°C
Dew
Point
Rel
Hum
%
Delta-T
°C
Wind Press
QNH
hPa
Press
MSL
hPa
Rain
since 9 am
mm
Dir
 
Spd
km/h
Gust
km/h
Spd
kts
Gust
kts
25/02:30pm 38.6 33.7 4.1 12 18.6 SSW 19 28 10 15 1014.1 - 0.0
25/02:00pm 38.4 33.7 5.1 13 18.2 SW 19 26 10 14 1014.5 - 0.0
25/01:30pm 37.7 33.3 4.6 13 17.9 SW 17 28 9 15 1014.7 - 0.0
25/01:00pm 37.8 33.4 4.7 13 17.9 WSW 17 32 9 17 1015.1 - 0.0
25/12:30pm 37.4 33.1 5.4 14 17.5 SW 17 24 9 13 1015.4 - 0.0
25/12:00pm 36.6 32.4 5.8 15 16.8 WSW 17 28 9 15 1015.6 1015.5 0.0
25/11:30am 38.1 32.0 4.9 13 18.1 SW 26 33 14 18 1015.8 - 0.0
25/11:22am 38.0 31.5 4.8 13 18.0 WSW 28 33 15 18 1015.8 - 0.0
25/11:00am 36.3 33.8 4.6 14 17.0 W 7 15 4 8 1016.0 - 0.0
25/10:30am 34.7 32.5 5.2 16 15.8 SSW 6 11 3 6 1016.1 - 0.0
25/10:00am 33.5 30.7 5.1 17 15.1 SSE 9 11 5 6 1016.2 - 0.0
25/09:30am 31.4 28.7 5.8 20 13.6 SE 9 11 5 6 1016.1 - 0.0
25/09:00am 30.2 27.1 5.5 21 13.0 S 11 13 6 7 1016.4 1016.3 0.0
25/08:30am 29.0 26.2 5.1 22 12.4 SSE 9 11 5 6 1016.1 - 0.0
25/08:00am 26.5 23.6 4.9 25 11.0 E 9 11 5 6 1015.7 - 0.0
25/07:30am 25.8 24.5 4.3 25 10.8 CALM 0 6 0 3 1015.3 - 0.0
25/07:00am 25.8 22.1 4.3 25 10.8 WSW 13 17 7 9 1015.1 - 0.0
25/06:30am 25.7 19.9 2.4 22 11.3 W 22 32 12 17 1015.1 - 0.0
25/06:00am 22.3 18.4 1.3 25 9.7 NW 11 13 6 7 1014.2 1014.0 0.0
25/05:30am 23.0 21.2 1.4 24 10.1 CALM 0 0 0 0 1013.7 - 0.0
25/05:00am 24.5 20.6 1.4 22 10.9 NE 11 15 6 8 1013.4 - 0.0
25/04:30am 24.4 21.3 1.3 22 10.9 ENE 7 9 4 5 1013.4 - 0.0
25/04:00am 27.8 25.8 2.1 19 12.6 NW 2 7 1 4 1013.6 - 0.0
25/03:30am 26.9 24.0 1.3 19 12.3 WSW 6 9 3 5 1013.8 - 0.0
25/03:00am 28.4 24.2 1.8 18 13.0 W 13 15 7 8 1013.8 1013.6 0.0
25/02:36am 25.7 18.3 1.8 21 11.4 WSW 30 52 16 28 1014.3 - 0.0
25/02:30am 24.7 22.9 0.9 21 11.1 CALM 0 0 0 0 1013.3 - 0.0
25/02:00am 24.1 22.2 0.4 21 10.9 CALM 0 0 0 0 1013.3 - 0.0
25/01:30am 25.1 22.8 0.6 20 11.4 NNE 2 6 1 3 1013.5 - 0.0
25/01:00am 26.0 23.8 1.3 20 11.8 SW 2 7 1 4 1013.8 - 0.0
25/12:30am 27.1 25.3 1.5 19 12.3 CALM 0 6 0 3 1013.8 - 0.0
25/12:00am 28.2 24.8 1.7 18 12.9 NNE 9 11 5 6 1014.0 1013.8 0.0
 
Date/Time
CDT
Temp
°C
App
Temp
°C
Dew
Point
Rel
Hum
%
Delta-T
°C
Wind Press
QNH
hPa
Press
MSL
hPa
Rain
since 9 am
mm
Dir
 
Spd
km/h
Gust
km/h
Spd
kts
Gust
kts
24/11:30pm 28.8 24.9 1.3 17 13.3 N 11 15 6 8 1014.1 - 0.0
24/11:00pm 30.4 28.7 1.8 16 14.2 CALM 0 0 0 0 1014.0 - 0.0
24/10:30pm 31.3 28.8 1.6 15 14.7 NNW 4 7 2 4 1014.1 - 0.0
24/10:00pm 32.0 28.5 1.2 14 15.2 N 9 9 5 5 1014.1 - 0.0
24/09:30pm 33.1 29.6 1.0 13 15.9 W 9 11 5 6 1013.8 - 0.0
24/09:00pm 33.7 30.6 0.4 12 16.4 W 6 13 3 7 1013.6 1013.4 0.0
24/08:30pm 35.6 30.7 -0.7 10 17.8 W 15 20 8 11 1013.6 - 0.0
24/08:00pm 35.3 30.9 0.4 11 17.4 WSW 13 26 7 14 1013.3 - 0.0
24/07:30pm 35.5 30.8 0.6 11 17.5 WSW 15 17 8 9 1013.0 - 0.0
24/07:00pm 36.7 32.3 0.1 10 18.3 WNW 13 26 7 14 1012.7 - 0.0
24/06:30pm 37.3 31.8 0.6 10 18.6 NNW 19 24 10 13 1012.5 - 0.0
24/06:00pm 37.5 32.4 0.7 10 18.7 NW 17 26 9 14 1012.4 1012.2 0.0
24/05:30pm 37.9 32.3 1.0 10 18.9 WNW 20 26 11 14 1012.1 - 0.0
24/05:18pm 37.7 30.0 2.2 11 18.5 WNW 32 50 17 27 1012.3 - 0.0
24/05:00pm 38.0 29.2 1.1 10 18.9 W 37 52 20 28 1012.3 - 0.0
24/04:36pm 38.3 27.4 1.3 10 19.1 W 48 67 26 36 1011.9 - 0.0
24/04:32pm 39.0 31.4 0.4 9 19.7 WNW 30 50 16 27 1011.8 - 0.0
24/04:30pm 39.0 31.5 -1.2 8 20.0 WNW 28 37 15 20 1011.8 - 0.0
24/04:00pm 39.6 31.4 -0.8 8 20.3 WNW 32 46 17 25 1011.8 - 0.0
24/03:37pm 39.7 30.7 -2.5 7 20.7 WNW 35 54 19 29 1012.0 - 0.0
24/03:30pm 39.6 29.3 -0.8 8 20.3 WNW 43 54 23 29 1012.1 - 0.0
24/03:00pm 39.4 30.6 -0.9 8 20.2 NW 35 54 19 29 1012.4 1012.2 0.0
24/02:54pm 39.9 31.5 -2.4 7 20.8 NW 32 50 17 27 1012.5 - 0.0
24/02:30pm 39.4 31.0 -0.9 8 20.2 NW 33 48 18 26 1012.7 - 0.0
24/02:00pm 39.4 31.2 -0.9 8 20.2 NW 32 44 17 24 1013.1 - 0.0
24/01:30pm 38.7 28.7 -1.4 8 19.9 WNW 41 50 22 27 1013.5 - 0.0
24/01:00pm 39.3 30.1 -1.0 8 20.2 NW 37 46 20 25 1013.8 - 0.0
24/12:30pm 38.9 30.1 -1.3 8 20.0 NW 35 46 19 25 1014.2 - 0.0
24/12:00pm 38.9 30.5 -1.3 8 20.0 NW 33 48 18 26 1014.6 1014.5 0.0
24/11:36am 38.6 30.3 -1.5 8 19.8 NW 32 50 17 27 1014.9 - 0.0
24/11:30am 38.7 30.4 -1.4 8 19.9 WNW 32 44 17 24 1015.1 - 0.0
24/11:00am 37.5 31.2 -0.7 9 19.0 NNW 22 30 12 16 1015.4 - 0.0
24/10:30am 35.7 29.8 -0.6 10 17.9 N 20 30 11 16 1015.6 - 0.0
24/10:00am 34.9 28.0 0.1 11 17.2 NNE 26 33 14 18 1015.6 - 0.0
24/09:30am 32.8 26.0 0.8 13 15.8 NE 26 32 14 17 1015.7 - 0.0
24/09:00am 31.2 25.0 2.4 16 14.5 NE 24 32 13 17 1015.7 1015.6 0.0
24/08:30am 27.8 23.5 3.5 21 12.2 ESE 15 17 8 9 1015.7 - 0.0
24/08:00am 24.7 20.8 3.4 25 10.4 SSE 13 17 7 9 1015.8 - 0.0
24/07:30am 22.3 17.6 2.9 28 9.3 SSE 17 19 9 10 1015.7 - 0.0
24/07:00am 20.8 16.5 3.1 31 8.4 SE 15 17 8 9 1015.4 - 0.0
24/06:30am 19.6 14.7 2.0 31 8.1 ESE 17 19 9 10 1015.0 - 0.0
24/06:00am 20.0 15.8 1.9 30 8.3 - 13 15 7 8 1014.6 1014.5 0.0
24/05:30am 20.5 17.2 2.3 30 8.5 SSE 9 11 5 6 1014.0 - 0.0
24/05:00am 21.1 17.4 2.4 29 8.8 SSE 11 13 6 7 1013.8 - 0.0
24/04:30am 21.3 17.6 2.6 29 8.8 SSE 11 15 6 8 1013.6 - 0.0
24/04:00am 22.7 18.3 2.8 27 9.5 S 15 17 8 9 1013.4 - 0.0
24/03:30am 23.3 19.0 3.3 27 9.7 S 15 17 8 9 1013.5 - 0.0
24/03:00am 22.1 17.6 2.2 27 9.4 SSE 15 17 8 9 1013.3 1013.1 0.0
24/02:30am 23.3 18.5 2.7 26 9.9 SSE 17 19 9 10 1013.5 - 0.0
24/02:00am 23.6 18.9 3.0 26 9.9 SSE 17 19 9 10 1014.1 - 0.0
24/01:30am 24.2 19.1 2.9 25 10.3 SSE 19 20 10 11 1014.2 - 0.0
24/01:00am 23.9 18.6 2.1 24 10.4 SSE 19 20 10 11 1014.4 - 0.0
24/12:30am 25.8 20.5 3.1 23 11.1 SSE 20 20 11 11 1014.5 - 0.0
24/12:00am 26.0 21.2 2.7 22 11.4 SSE 17 19 9 10 1014.5 1014.3 0.0
 
Date/Time
CDT
Temp
°C
App
Temp
°C
Dew
Point
Rel
Hum
%
Delta-T
°C
Wind Press
QNH
hPa
Press
MSL
hPa
Rain
since 9 am
mm
Dir
 
Spd
km/h
Gust
km/h
Spd
kts
Gust
kts
23/11:30pm 25.5 21.4 2.2 22 11.2 SE 13 15 7 8 1014.5 - 0.0
23/11:00pm 26.3 23.0 2.3 21 11.7 ESE 9 11 5 6 1014.5 - 0.0
23/10:30pm 26.9 23.9 2.1 20 12.0 ESE 7 7 4 4 1014.5 - 0.0
23/10:00pm 27.0 22.9 2.1 20 12.1 SE 13 15 7 8 1014.2 - 0.0
23/09:30pm 28.1 24.0 2.3 19 12.7 ESE 13 15 7 8 1013.9 - 0.0
23/09:00pm 30.0 25.5 2.3 17 13.8 SSE 15 15 8 8 1013.6 1013.4 0.0
23/08:30pm 32.4 27.6 2.5 15 15.2 S 17 19 9 10 1013.3 - 0.0
23/08:00pm 32.6 28.6 2.6 15 15.3 WNW 13 13 7 7 1012.9 - 0.0
23/07:30pm 34.6 30.5 2.2 13 16.6 W 13 17 7 9 1012.6 - 0.0
23/07:00pm 35.9 31.4 2.1 12 17.4 W 15 19 8 10 1012.4 - 0.0
23/06:30pm 37.2 31.9 1.8 11 18.3 W 19 26 10 14 1012.3 - 0.0
23/06:00pm 37.7 32.5 2.2 11 18.5 W 19 24 10 13 1012.2 1012.0 0.0
23/05:30pm 38.0 32.6 2.4 11 18.6 W 20 33 11 18 1012.1 - 0.0
23/05:00pm 38.1 32.0 2.5 11 18.7 NW 24 32 13 17 1011.9 - 0.0
23/04:30pm 38.2 31.9 1.3 10 19.0 WNW 24 32 13 17 1012.0 - 0.0
23/04:00pm 37.8 30.6 1.0 10 18.8 NW 28 37 15 20 1012.2 - 0.0
23/03:30pm 38.3 31.2 1.3 10 19.1 WNW 28 39 15 21 1012.3 - 0.0
23/03:00pm 38.2 31.5 1.3 10 19.0 W 26 35 14 19 1012.6 1012.4 0.0
23/02:30pm 38.2 31.7 2.6 11 18.7 WNW 26 35 14 19 1012.9 - 0.0
23/02:00pm 37.6 31.8 2.1 11 18.4 WNW 22 33 12 18 1013.3 - 0.0
23/01:30pm 36.6 30.9 2.6 12 17.7 NW 22 32 12 17 1013.7 - 0.0
23/01:00pm 35.8 31.1 3.1 13 17.1 NW 17 28 9 15 1014.1 - 0.0
23/12:30pm 35.6 30.7 4.0 14 16.7 N 19 24 10 13 1014.7 - 0.0
23/12:00pm 34.3 31.1 4.9 16 15.7 NW 11 19 6 10 1015.2 1015.1 0.0
23/11:30am 33.1 29.8 4.8 17 15.0 WNW 11 19 6 10 1015.5 - 0.0
23/11:00am 32.3 29.6 5.7 19 14.2 NNW 9 15 5 8 1015.8 - 0.0
23/10:30am 31.2 29.1 5.6 20 13.6 NW 6 15 3 8 1016.0 - 0.0
23/10:00am 29.5 28.0 6.8 24 12.2 NW 4 9 2 5 1016.0 - 0.0
23/09:30am 28.2 26.0 8.0 28 11.0 SSE 9 13 5 7 1016.0 - 0.0
23/09:00am 26.0 24.4 11.4 40 8.3 SE 11 15 6 8 1016.1 1016.0 0.0
23/08:30am 23.6 22.5 12.0 48 6.6 SSE 9 13 5 7 1016.1 - 0.0
23/08:00am 21.7 20.3 12.3 55 5.3 SSE 11 13 6 7 1015.8 - 0.0
23/07:30am 20.0 18.4 11.7 59 4.6 SE 11 13 6 7 1015.8 - 0.0
23/07:00am 19.3 17.6 11.3 60 4.4 SE 11 15 6 8 1015.3 - 0.0
23/06:30am 19.0 16.8 10.8 59 4.5 SE 13 15 7 8 1015.3 - 0.0
23/06:00am 20.1 17.8 11.6 58 4.7 ESE 15 19 8 10 1015.1 1015.0 0.0
23/05:30am 20.2 16.3 10.9 55 5.1 E 22 28 12 15 1014.8 - 0.0
23/05:00am 20.7 17.4 9.6 49 5.9 SSE 17 20 9 11 1014.3 - 0.0
23/04:30am 21.3 17.4 9.5 47 6.3 SSE 20 26 11 14 1014.1 - 0.0
23/04:00am 20.3 17.7 6.3 40 7.0 SE 9 11 5 6 1014.3 - 0.0
23/03:30am 20.9 17.8 5.7 37 7.6 SSE 11 13 6 7 1014.3 - 0.0
23/03:00am 22.2 19.5 5.6 34 8.3 SSE 9 11 5 6 1014.6 1014.5 0.0
23/02:30am 23.3 20.7 6.1 33 8.8 SSE 9 11 5 6 1014.8 - 0.0
23/02:00am 24.4 20.8 6.6 32 9.2 S 15 19 8 10 1014.9 - 0.0
23/01:30am 25.2 22.0 6.9 31 9.6 S 13 17 7 9 1015.5 - 0.0
23/01:00am 26.6 23.8 7.1 29 10.3 SSE 11 15 6 8 1015.6 - 0.0
23/12:30am 27.3 24.9 7.2 28 10.7 SW 9 19 5 10 1015.6 - 0.0
23/12:00am 28.1 24.8 6.2 25 11.5 S 13 19 7 10 1015.7 1015.6 0.0
 
Date/Time
CDT
Temp
°C
App
Temp
°C
Dew
Point
Rel
Hum
%
Delta-T
°C
Wind Press
QNH
hPa
Press
MSL
hPa
Rain
since 9 am
mm
Dir
 
Spd
km/h
Gust
km/h
Spd
kts
Gust
kts
22/11:30pm 27.5 22.9 1.8 19 12.5 S 15 17 8 9 1015.7 - 0.0
22/11:00pm 29.4 24.0 1.0 16 13.8 S 19 22 10 12 1015.7 - 0.0
22/10:30pm 29.1 24.4 0.7 16 13.7 S 15 17 8 9 1015.5 - 0.0
22/10:00pm 30.6 25.2 1.0 15 14.5 SSW 19 22 10 12 1015.4 - 0.0
22/09:30pm 32.5 26.8 0.6 13 15.7 SW 20 24 11 13 1015.2 - 0.0
22/09:00pm 31.6 26.8 -0.1 13 15.3 W 15 24 8 13 1014.7 1014.6 0.0
22/08:30pm 32.7 28.2 -0.4 12 16.0 NNW 13 15 7 8 1014.3 - 0.0
22/08:00pm 34.7 29.1 -0.1 11 17.2 N 19 22 10 12 1014.0 - 0.0
22/07:30pm 35.9 30.2 -0.5 10 18.0 N 19 22 10 12 1013.7 - 0.0
22/07:00pm 37.1 31.7 -1.0 9 18.8 N 17 20 9 11 1013.5 - 0.0
22/06:30pm 37.4 31.5 -0.8 9 18.9 NNW 20 24 11 13 1013.5 - 0.0
22/06:00pm 38.8 32.7 0.3 9 19.6 NNW 22 26 12 14 1013.5 1013.3 0.0
22/05:30pm 38.0 31.4 -0.3 9 19.2 NW 24 35 13 19 1013.7 - 0.0
22/05:00pm 38.7 31.4 0.2 9 19.5 W 28 41 15 22 1013.9 - 0.0
22/04:30pm 38.5 32.0 0.0 9 19.5 NW 24 37 13 20 1014.1 - 0.0
22/04:00pm 38.8 31.2 0.3 9 19.6 NNW 30 46 16 25 1014.3 - 0.0
22/03:53pm 39.0 31.8 0.4 9 19.7 NNW 28 46 15 25 1014.4 - 0.0
22/03:30pm 38.5 31.2 0.0 9 19.5 NNW 28 41 15 22 1014.6 - 0.0
22/03:16pm 39.2 32.0 0.6 9 19.8 NW 28 48 15 26 1014.8 - 0.0
22/03:00pm 38.7 30.7 0.2 9 19.5 NW 32 48 17 26 1015.2 1015.1 0.0

Other Formats:

Comma delimited format used in spreadsheet applications
http://www.bom.gov.au/fwo/IDS60801/IDS60801.95480.axf

JavaScript Object Notation format (JSON) in row-major order
http://www.bom.gov.au/fwo/IDS60801/IDS60801.95480.json